sensor_id;sensor_type;location;lat;lon;timestamp;P1;durP1;ratioP1;P2;durP2;ratioP2
21743;SDS011;11034;48.556;9.342;2023-09-19T00:01:51;2.08;;;0.80;;
21743;SDS011;11034;48.556;9.342;2023-09-19T00:04:23;2.13;;;1.00;;
21743;SDS011;11034;48.556;9.342;2023-09-19T00:06:55;1.25;;;0.70;;
21743;SDS011;11034;48.556;9.342;2023-09-19T00:09:23;1.38;;;0.80;;
21743;SDS011;11034;48.556;9.342;2023-09-19T00:11:54;2.17;;;0.80;;
21743;SDS011;11034;48.556;9.342;2023-09-19T00:14:25;0.90;;;0.70;;
21743;SDS011;11034;48.556;9.342;2023-09-19T00:16:54;1.10;;;0.65;;
21743;SDS011;11034;48.556;9.342;2023-09-19T00:19:23;0.93;;;0.60;;
21743;SDS011;11034;48.556;9.342;2023-09-19T00:22:00;1.40;;;0.65;;
21743;SDS011;11034;48.556;9.342;2023-09-19T00:24:30;1.48;;;0.85;;
21743;SDS011;11034;48.556;9.342;2023-09-19T00:27:04;1.48;;;0.70;;
21743;SDS011;11034;48.556;9.342;2023-09-19T00:30:00;3.10;;;0.80;;
21743;SDS011;11034;48.556;9.342;2023-09-19T00:33:07;1.02;;;0.77;;
21743;SDS011;11034;48.556;9.342;2023-09-19T00:35:58;1.23;;;0.60;;
21743;SDS011;11034;48.556;9.342;2023-09-19T00:39:01;0.80;;;0.63;;
21743;SDS011;11034;48.556;9.342;2023-09-19T00:42:04;0.98;;;0.85;;
21743;SDS011;11034;48.556;9.342;2023-09-19T00:48:59;1.52;;;0.80;;
21743;SDS011;11034;48.556;9.342;2023-09-19T00:52:25;1.10;;;0.60;;
21743;SDS011;11034;48.556;9.342;2023-09-19T00:55:50;0.90;;;0.80;;
21743;SDS011;11034;48.556;9.342;2023-09-19T00:59:11;1.90;;;1.00;;
21743;SDS011;11034;48.556;9.342;2023-09-19T01:06:19;1.73;;;0.90;;
21743;SDS011;11034;48.556;9.342;2023-09-19T01:09:47;2.10;;;1.00;;
21743;SDS011;11034;48.556;9.342;2023-09-19T01:12:58;1.00;;;0.77;;
21743;SDS011;11034;48.556;9.342;2023-09-19T01:16:07;2.45;;;0.70;;
21743;SDS011;11034;48.556;9.342;2023-09-19T01:19:42;2.65;;;0.90;;
21743;SDS011;11034;48.556;9.342;2023-09-19T01:22:56;0.90;;;0.70;;
21743;SDS011;11034;48.556;9.342;2023-09-19T01:26:12;1.63;;;0.80;;
21743;SDS011;11034;48.556;9.342;2023-09-19T01:29:13;1.08;;;0.70;;
21743;SDS011;11034;48.556;9.342;2023-09-19T01:39:52;2.50;;;0.80;;
21743;SDS011;11034;48.556;9.342;2023-09-19T01:43:32;1.35;;;0.90;;
21743;SDS011;11034;48.556;9.342;2023-09-19T01:46:24;1.15;;;0.77;;
21743;SDS011;11034;48.556;9.342;2023-09-19T01:49:08;2.53;;;0.93;;
21743;SDS011;11034;48.556;9.342;2023-09-19T01:52:05;1.65;;;1.00;;
21743;SDS011;11034;48.556;9.342;2023-09-19T01:55:04;2.78;;;1.10;;
21743;SDS011;11034;48.556;9.342;2023-09-19T01:58:06;1.30;;;1.00;;
21743;SDS011;11034;48.556;9.342;2023-09-19T02:00:51;2.80;;;1.13;;
21743;SDS011;11034;48.556;9.342;2023-09-19T02:03:42;1.70;;;0.75;;
21743;SDS011;11034;48.556;9.342;2023-09-19T02:06:45;1.80;;;0.80;;
21743;SDS011;11034;48.556;9.342;2023-09-19T02:09:16;1.27;;;1.00;;
21743;SDS011;11034;48.556;9.342;2023-09-19T02:12:05;3.70;;;1.05;;
21743;SDS011;11034;48.556;9.342;2023-09-19T02:14:34;2.70;;;1.00;;
21743;SDS011;11034;48.556;9.342;2023-09-19T02:17:03;1.42;;;0.90;;
21743;SDS011;11034;48.556;9.342;2023-09-19T02:19:33;2.40;;;1.20;;
21743;SDS011;11034;48.556;9.342;2023-09-19T02:22:08;1.38;;;1.10;;
21743;SDS011;11034;48.556;9.342;2023-09-19T02:24:39;2.10;;;1.00;;
21743;SDS011;11034;48.556;9.342;2023-09-19T02:27:08;3.03;;;1.15;;
21743;SDS011;11034;48.556;9.342;2023-09-19T02:29:41;1.98;;;1.10;;
21743;SDS011;11034;48.556;9.342;2023-09-19T02:32:10;2.40;;;1.05;;
21743;SDS011;11034;48.556;9.342;2023-09-19T02:34:40;2.42;;;1.10;;
21743;SDS011;11034;48.556;9.342;2023-09-19T02:37:08;2.55;;;1.15;;
21743;SDS011;11034;48.556;9.342;2023-09-19T02:39:39;1.85;;;1.05;;
21743;SDS011;11034;48.556;9.342;2023-09-19T02:42:10;3.97;;;1.30;;
21743;SDS011;11034;48.556;9.342;2023-09-19T02:44:39;1.83;;;1.10;;
21743;SDS011;11034;48.556;9.342;2023-09-19T02:47:07;2.45;;;1.50;;
21743;SDS011;11034;48.556;9.342;2023-09-19T02:49:39;1.75;;;1.20;;
21743;SDS011;11034;48.556;9.342;2023-09-19T02:52:11;3.38;;;1.30;;
21743;SDS011;11034;48.556;9.342;2023-09-19T02:54:41;1.90;;;1.20;;
21743;SDS011;11034;48.556;9.342;2023-09-19T02:57:39;4.22;;;1.30;;
21743;SDS011;11034;48.556;9.342;2023-09-19T03:00:11;3.70;;;1.25;;
21743;SDS011;11034;48.556;9.342;2023-09-19T03:02:40;1.45;;;1.10;;
21743;SDS011;11034;48.556;9.342;2023-09-19T03:05:14;1.60;;;1.10;;
21743;SDS011;11034;48.556;9.342;2023-09-19T03:07:45;1.85;;;1.10;;
21743;SDS011;11034;48.556;9.342;2023-09-19T03:10:17;2.22;;;1.33;;
21743;SDS011;11034;48.556;9.342;2023-09-19T03:12:52;2.30;;;1.30;;
21743;SDS011;11034;48.556;9.342;2023-09-19T03:15:21;2.00;;;1.13;;
21743;SDS011;11034;48.556;9.342;2023-09-19T03:17:54;2.78;;;1.00;;
21743;SDS011;11034;48.556;9.342;2023-09-19T03:20:24;1.48;;;1.10;;
21743;SDS011;11034;48.556;9.342;2023-09-19T03:22:54;2.25;;;0.90;;
21743;SDS011;11034;48.556;9.342;2023-09-19T03:25:36;1.13;;;0.90;;
21743;SDS011;11034;48.556;9.342;2023-09-19T03:28:12;2.55;;;1.08;;
21743;SDS011;11034;48.556;9.342;2023-09-19T03:30:44;2.50;;;1.10;;
21743;SDS011;11034;48.556;9.342;2023-09-19T03:33:29;1.95;;;1.02;;
21743;SDS011;11034;48.556;9.342;2023-09-19T03:36:04;3.35;;;1.00;;
21743;SDS011;11034;48.556;9.342;2023-09-19T03:38:33;2.65;;;0.93;;
21743;SDS011;11034;48.556;9.342;2023-09-19T03:41:02;2.53;;;1.42;;
21743;SDS011;11034;48.556;9.342;2023-09-19T03:43:32;4.55;;;1.33;;
21743;SDS011;11034;48.556;9.342;2023-09-19T03:46:01;2.10;;;1.10;;
21743;SDS011;11034;48.556;9.342;2023-09-19T03:48:31;4.20;;;1.10;;
21743;SDS011;11034;48.556;9.342;2023-09-19T03:51:02;1.35;;;1.20;;
21743;SDS011;11034;48.556;9.342;2023-09-19T03:53:37;2.72;;;1.10;;
21743;SDS011;11034;48.556;9.342;2023-09-19T03:56:08;1.50;;;1.00;;
21743;SDS011;11034;48.556;9.342;2023-09-19T03:58:38;2.08;;;1.02;;
21743;SDS011;11034;48.556;9.342;2023-09-19T04:01:06;2.03;;;1.35;;
21743;SDS011;11034;48.556;9.342;2023-09-19T04:03:35;2.50;;;1.40;;
21743;SDS011;11034;48.556;9.342;2023-09-19T04:06:15;1.65;;;1.20;;
21743;SDS011;11034;48.556;9.342;2023-09-19T04:08:55;2.88;;;1.38;;
21743;SDS011;11034;48.556;9.342;2023-09-19T04:11:42;2.83;;;1.30;;
21743;SDS011;11034;48.556;9.342;2023-09-19T04:15:13;3.53;;;1.52;;
21743;SDS011;11034;48.556;9.342;2023-09-19T04:17:42;2.95;;;1.52;;
21743;SDS011;11034;48.556;9.342;2023-09-19T04:20:11;2.95;;;1.83;;
21743;SDS011;11034;48.556;9.342;2023-09-19T04:22:39;5.50;;;1.70;;
21743;SDS011;11034;48.556;9.342;2023-09-19T04:25:07;2.85;;;1.65;;
21743;SDS011;11034;48.556;9.342;2023-09-19T04:27:36;2.65;;;1.52;;
21743;SDS011;11034;48.556;9.342;2023-09-19T04:30:05;4.25;;;1.80;;
21743;SDS011;11034;48.556;9.342;2023-09-19T04:32:38;3.83;;;1.77;;
21743;SDS011;11034;48.556;9.342;2023-09-19T04:35:07;2.13;;;1.50;;
21743;SDS011;11034;48.556;9.342;2023-09-19T04:37:37;3.58;;;1.80;;
21743;SDS011;11034;48.556;9.342;2023-09-19T04:40:07;4.90;;;1.73;;
21743;SDS011;11034;48.556;9.342;2023-09-19T04:42:44;2.83;;;1.40;;
21743;SDS011;11034;48.556;9.342;2023-09-19T04:45:13;2.97;;;1.15;;
21743;SDS011;11034;48.556;9.342;2023-09-19T04:47:43;3.33;;;1.40;;
21743;SDS011;11034;48.556;9.342;2023-09-19T04:50:12;2.50;;;1.50;;
21743;SDS011;11034;48.556;9.342;2023-09-19T04:52:41;1.52;;;1.20;;
21743;SDS011;11034;48.556;9.342;2023-09-19T04:55:10;7.13;;;1.70;;
21743;SDS011;11034;48.556;9.342;2023-09-19T04:57:52;2.30;;;1.38;;
21743;SDS011;11034;48.556;9.342;2023-09-19T05:00:53;2.88;;;1.35;;
21743;SDS011;11034;48.556;9.342;2023-09-19T05:03:42;1.80;;;1.30;;
21743;SDS011;11034;48.556;9.342;2023-09-19T05:06:12;1.90;;;1.23;;
21743;SDS011;11034;48.556;9.342;2023-09-19T05:08:44;2.20;;;1.25;;
21743;SDS011;11034;48.556;9.342;2023-09-19T05:11:17;2.65;;;1.30;;
21743;SDS011;11034;48.556;9.342;2023-09-19T05:13:46;1.85;;;1.10;;
21743;SDS011;11034;48.556;9.342;2023-09-19T05:16:15;2.75;;;1.15;;
21743;SDS011;11034;48.556;9.342;2023-09-19T05:18:45;1.77;;;1.05;;
21743;SDS011;11034;48.556;9.342;2023-09-19T05:21:14;3.05;;;1.17;;
21743;SDS011;11034;48.556;9.342;2023-09-19T05:23:42;1.77;;;1.10;;
21743;SDS011;11034;48.556;9.342;2023-09-19T05:26:10;4.20;;;1.15;;
21743;SDS011;11034;48.556;9.342;2023-09-19T05:28:39;2.95;;;1.30;;
21743;SDS011;11034;48.556;9.342;2023-09-19T05:31:07;3.03;;;1.10;;
21743;SDS011;11034;48.556;9.342;2023-09-19T05:33:48;1.80;;;1.15;;
21743;SDS011;11034;48.556;9.342;2023-09-19T05:36:24;1.23;;;0.90;;
21743;SDS011;11034;48.556;9.342;2023-09-19T05:38:59;1.75;;;1.08;;
21743;SDS011;11034;48.556;9.342;2023-09-19T05:41:44;1.65;;;0.85;;
21743;SDS011;11034;48.556;9.342;2023-09-19T05:44:31;0.93;;;0.88;;
21743;SDS011;11034;48.556;9.342;2023-09-19T05:46:59;1.75;;;0.90;;
21743;SDS011;11034;48.556;9.342;2023-09-19T05:49:39;1.35;;;0.90;;
21743;SDS011;11034;48.556;9.342;2023-09-19T05:52:10;3.53;;;1.10;;
21743;SDS011;11034;48.556;9.342;2023-09-19T05:54:38;2.08;;;1.13;;
21743;SDS011;11034;48.556;9.342;2023-09-19T05:57:13;1.17;;;1.00;;
21743;SDS011;11034;48.556;9.342;2023-09-19T05:59:49;1.55;;;0.90;;
21743;SDS011;11034;48.556;9.342;2023-09-19T06:02:19;2.45;;;1.17;;
21743;SDS011;11034;48.556;9.342;2023-09-19T06:04:49;3.30;;;0.88;;
21743;SDS011;11034;48.556;9.342;2023-09-19T06:07:22;1.42;;;0.95;;
21743;SDS011;11034;48.556;9.342;2023-09-19T06:10:07;1.15;;;0.93;;
21743;SDS011;11034;48.556;9.342;2023-09-19T06:12:45;3.30;;;0.90;;
21743;SDS011;11034;48.556;9.342;2023-09-19T06:15:16;2.22;;;1.13;;
21743;SDS011;11034;48.556;9.342;2023-09-19T06:17:49;2.45;;;1.00;;
21743;SDS011;11034;48.556;9.342;2023-09-19T06:20:26;3.13;;;1.02;;
21743;SDS011;11034;48.556;9.342;2023-09-19T06:22:56;2.50;;;1.05;;
21743;SDS011;11034;48.556;9.342;2023-09-19T06:25:24;2.58;;;1.60;;
21743;SDS011;11034;48.556;9.342;2023-09-19T06:27:53;3.45;;;1.33;;
21743;SDS011;11034;48.556;9.342;2023-09-19T06:30:24;4.13;;;1.60;;
21743;SDS011;11034;48.556;9.342;2023-09-19T06:32:55;4.55;;;1.50;;
21743;SDS011;11034;48.556;9.342;2023-09-19T06:35:26;2.80;;;1.30;;
21743;SDS011;11034;48.556;9.342;2023-09-19T06:37:56;3.03;;;1.60;;
21743;SDS011;11034;48.556;9.342;2023-09-19T06:40:25;4.25;;;1.90;;
21743;SDS011;11034;48.556;9.342;2023-09-19T06:42:54;2.28;;;1.60;;
21743;SDS011;11034;48.556;9.342;2023-09-19T06:45:23;2.80;;;1.27;;
21743;SDS011;11034;48.556;9.342;2023-09-19T06:47:54;2.38;;;1.30;;
21743;SDS011;11034;48.556;9.342;2023-09-19T06:50:26;1.25;;;1.10;;
21743;SDS011;11034;48.556;9.342;2023-09-19T06:52:54;2.38;;;1.00;;
21743;SDS011;11034;48.556;9.342;2023-09-19T06:55:25;3.78;;;1.30;;
21743;SDS011;11034;48.556;9.342;2023-09-19T06:57:58;1.92;;;1.10;;
21743;SDS011;11034;48.556;9.342;2023-09-19T07:00:27;1.70;;;1.40;;
21743;SDS011;11034;48.556;9.342;2023-09-19T07:02:58;2.08;;;1.27;;
21743;SDS011;11034;48.556;9.342;2023-09-19T07:05:32;1.90;;;1.10;;
21743;SDS011;11034;48.556;9.342;2023-09-19T07:08:08;2.60;;;1.30;;
21743;SDS011;11034;48.556;9.342;2023-09-19T07:10:39;6.68;;;1.20;;
21743;SDS011;11034;48.556;9.342;2023-09-19T07:13:08;2.67;;;1.17;;
21743;SDS011;11034;48.556;9.342;2023-09-19T07:15:37;3.03;;;1.30;;
21743;SDS011;11034;48.556;9.342;2023-09-19T07:18:13;2.35;;;1.17;;
21743;SDS011;11034;48.556;9.342;2023-09-19T07:20:44;3.28;;;1.10;;
21743;SDS011;11034;48.556;9.342;2023-09-19T07:23:16;1.85;;;1.15;;
21743;SDS011;11034;48.556;9.342;2023-09-19T07:25:45;3.47;;;1.08;;
21743;SDS011;11034;48.556;9.342;2023-09-19T07:28:15;2.35;;;1.20;;
21743;SDS011;11034;48.556;9.342;2023-09-19T07:30:45;5.63;;;1.40;;
21743;SDS011;11034;48.556;9.342;2023-09-19T07:33:13;2.28;;;1.23;;
21743;SDS011;11034;48.556;9.342;2023-09-19T07:35:47;1.77;;;1.00;;
21743;SDS011;11034;48.556;9.342;2023-09-19T07:38:15;1.98;;;1.20;;
21743;SDS011;11034;48.556;9.342;2023-09-19T07:40:44;1.67;;;1.15;;
21743;SDS011;11034;48.556;9.342;2023-09-19T07:43:13;6.05;;;1.20;;
21743;SDS011;11034;48.556;9.342;2023-09-19T07:45:42;2.83;;;0.95;;
21743;SDS011;11034;48.556;9.342;2023-09-19T07:48:10;2.40;;;1.40;;
21743;SDS011;11034;48.556;9.342;2023-09-19T07:50:41;2.72;;;1.17;;
21743;SDS011;11034;48.556;9.342;2023-09-19T07:53:12;1.50;;;1.20;;
21743;SDS011;11034;48.556;9.342;2023-09-19T07:55:45;3.88;;;1.20;;
21743;SDS011;11034;48.556;9.342;2023-09-19T07:58:15;2.70;;;1.20;;
21743;SDS011;11034;48.556;9.342;2023-09-19T08:00:43;2.75;;;1.25;;
21743;SDS011;11034;48.556;9.342;2023-09-19T08:03:12;1.13;;;0.90;;
21743;SDS011;11034;48.556;9.342;2023-09-19T08:05:43;1.48;;;1.00;;
21743;SDS011;11034;48.556;9.342;2023-09-19T08:08:14;2.22;;;1.10;;
21743;SDS011;11034;48.556;9.342;2023-09-19T08:10:42;4.05;;;1.02;;
21743;SDS011;11034;48.556;9.342;2023-09-19T08:13:13;1.33;;;1.00;;
21743;SDS011;11034;48.556;9.342;2023-09-19T08:15:43;1.52;;;1.23;;
21743;SDS011;11034;48.556;9.342;2023-09-19T08:18:13;6.22;;;1.30;;
21743;SDS011;11034;48.556;9.342;2023-09-19T08:20:42;4.38;;;1.00;;
21743;SDS011;11034;48.556;9.342;2023-09-19T08:23:14;2.03;;;0.98;;
21743;SDS011;11034;48.556;9.342;2023-09-19T08:25:43;1.52;;;1.10;;
21743;SDS011;11034;48.556;9.342;2023-09-19T08:28:12;3.38;;;1.10;;
21743;SDS011;11034;48.556;9.342;2023-09-19T08:30:45;3.20;;;1.02;;
21743;SDS011;11034;48.556;9.342;2023-09-19T08:33:15;2.63;;;1.13;;
21743;SDS011;11034;48.556;9.342;2023-09-19T08:35:49;3.05;;;1.20;;
21743;SDS011;11034;48.556;9.342;2023-09-19T08:38:22;1.88;;;1.15;;
21743;SDS011;11034;48.556;9.342;2023-09-19T08:41:05;2.17;;;0.98;;
21743;SDS011;11034;48.556;9.342;2023-09-19T08:43:35;2.55;;;1.10;;
21743;SDS011;11034;48.556;9.342;2023-09-19T08:46:06;3.25;;;1.23;;
21743;SDS011;11034;48.556;9.342;2023-09-19T08:48:40;4.30;;;1.20;;
21743;SDS011;11034;48.556;9.342;2023-09-19T08:51:19;3.47;;;1.17;;
21743;SDS011;11034;48.556;9.342;2023-09-19T08:54:01;1.35;;;1.00;;
21743;SDS011;11034;48.556;9.342;2023-09-19T08:56:33;1.20;;;1.00;;
21743;SDS011;11034;48.556;9.342;2023-09-19T08:59:03;4.43;;;1.00;;
21743;SDS011;11034;48.556;9.342;2023-09-19T09:01:36;2.35;;;1.20;;
21743;SDS011;11034;48.556;9.342;2023-09-19T09:04:10;1.85;;;0.93;;
21743;SDS011;11034;48.556;9.342;2023-09-19T09:06:42;4.10;;;1.10;;
21743;SDS011;11034;48.556;9.342;2023-09-19T09:09:17;2.75;;;1.20;;
21743;SDS011;11034;48.556;9.342;2023-09-19T09:11:49;2.00;;;1.20;;
21743;SDS011;11034;48.556;9.342;2023-09-19T09:14:24;2.28;;;1.05;;
21743;SDS011;11034;48.556;9.342;2023-09-19T09:16:57;3.15;;;1.05;;
21743;SDS011;11034;48.556;9.342;2023-09-19T09:19:29;2.10;;;1.02;;
21743;SDS011;11034;48.556;9.342;2023-09-19T09:22:11;3.17;;;1.20;;
21743;SDS011;11034;48.556;9.342;2023-09-19T09:24:54;2.28;;;1.10;;
21743;SDS011;11034;48.556;9.342;2023-09-19T09:27:38;3.63;;;1.35;;
21743;SDS011;11034;48.556;9.342;2023-09-19T09:30:39;1.85;;;1.10;;
21743;SDS011;11034;48.556;9.342;2023-09-19T09:33:23;2.80;;;1.00;;
21743;SDS011;11034;48.556;9.342;2023-09-19T09:36:01;5.70;;;1.42;;
21743;SDS011;11034;48.556;9.342;2023-09-19T09:38:49;3.60;;;1.27;;
21743;SDS011;11034;48.556;9.342;2023-09-19T09:41:23;2.15;;;1.00;;
21743;SDS011;11034;48.556;9.342;2023-09-19T09:44:11;8.50;;;1.45;;
21743;SDS011;11034;48.556;9.342;2023-09-19T09:46:42;2.38;;;1.23;;
21743;SDS011;11034;48.556;9.342;2023-09-19T09:49:28;2.40;;;1.08;;
21743;SDS011;11034;48.556;9.342;2023-09-19T09:52:01;2.00;;;1.10;;
21743;SDS011;11034;48.556;9.342;2023-09-19T09:54:37;2.83;;;1.02;;
21743;SDS011;11034;48.556;9.342;2023-09-19T09:57:10;1.90;;;1.27;;
21743;SDS011;11034;48.556;9.342;2023-09-19T09:59:49;2.58;;;1.30;;
21743;SDS011;11034;48.556;9.342;2023-09-19T10:02:27;1.80;;;1.30;;
21743;SDS011;11034;48.556;9.342;2023-09-19T10:08:18;3.28;;;1.20;;
21743;SDS011;11034;48.556;9.342;2023-09-19T10:14:20;3.30;;;1.40;;
21743;SDS011;11034;48.556;9.342;2023-09-19T10:17:18;1.83;;;1.10;;
21743;SDS011;11034;48.556;9.342;2023-09-19T10:20:26;3.00;;;1.20;;
21743;SDS011;11034;48.556;9.342;2023-09-19T10:23:04;2.88;;;1.00;;
21743;SDS011;11034;48.556;9.342;2023-09-19T10:25:39;2.65;;;1.13;;
21743;SDS011;11034;48.556;9.342;2023-09-19T10:28:10;3.90;;;1.27;;
21743;SDS011;11034;48.556;9.342;2023-09-19T10:30:42;2.70;;;1.25;;
21743;SDS011;11034;48.556;9.342;2023-09-19T10:33:13;1.60;;;1.00;;
21743;SDS011;11034;48.556;9.342;2023-09-19T10:35:44;1.63;;;1.10;;
21743;SDS011;11034;48.556;9.342;2023-09-19T10:38:14;2.38;;;1.30;;
21743;SDS011;11034;48.556;9.342;2023-09-19T10:40:48;2.80;;;1.40;;
21743;SDS011;11034;48.556;9.342;2023-09-19T10:43:18;1.35;;;1.10;;
21743;SDS011;11034;48.556;9.342;2023-09-19T10:45:50;1.25;;;1.00;;
21743;SDS011;11034;48.556;9.342;2023-09-19T10:48:25;2.00;;;1.10;;
21743;SDS011;11034;48.556;9.342;2023-09-19T10:50:56;2.63;;;1.30;;
21743;SDS011;11034;48.556;9.342;2023-09-19T10:53:42;2.47;;;1.40;;
21743;SDS011;11034;48.556;9.342;2023-09-19T10:56:23;1.75;;;1.13;;
21743;SDS011;11034;48.556;9.342;2023-09-19T10:59:05;2.17;;;1.38;;
21743;SDS011;11034;48.556;9.342;2023-09-19T11:01:46;3.40;;;1.02;;
21743;SDS011;11034;48.556;9.342;2023-09-19T11:04:32;4.75;;;1.30;;
21743;SDS011;11034;48.556;9.342;2023-09-19T11:07:33;3.50;;;1.25;;
21743;SDS011;11034;48.556;9.342;2023-09-19T11:10:45;2.83;;;1.10;;
21743;SDS011;11034;48.556;9.342;2023-09-19T11:13:24;4.55;;;1.17;;
21743;SDS011;11034;48.556;9.342;2023-09-19T11:16:08;2.20;;;1.10;;
21743;SDS011;11034;48.556;9.342;2023-09-19T11:19:07;3.25;;;1.27;;
21743;SDS011;11034;48.556;9.342;2023-09-19T11:24:52;4.28;;;1.30;;
21743;SDS011;11034;48.556;9.342;2023-09-19T11:27:41;1.30;;;0.90;;
21743;SDS011;11034;48.556;9.342;2023-09-19T11:30:51;2.35;;;1.10;;
21743;SDS011;11034;48.556;9.342;2023-09-19T11:33:20;1.60;;;0.98;;
21743;SDS011;11034;48.556;9.342;2023-09-19T11:36:16;2.90;;;1.10;;
21743;SDS011;11034;48.556;9.342;2023-09-19T11:38:57;1.67;;;1.17;;
21743;SDS011;11034;48.556;9.342;2023-09-19T11:41:41;2.25;;;1.30;;
21743;SDS011;11034;48.556;9.342;2023-09-19T11:47:11;3.40;;;1.25;;
21743;SDS011;11034;48.556;9.342;2023-09-19T11:49:42;1.92;;;1.10;;
21743;SDS011;11034;48.556;9.342;2023-09-19T11:52:23;2.70;;;1.17;;
21743;SDS011;11034;48.556;9.342;2023-09-19T11:54:56;2.03;;;1.00;;
21743;SDS011;11034;48.556;9.342;2023-09-19T11:57:28;1.83;;;1.05;;
21743;SDS011;11034;48.556;9.342;2023-09-19T12:00:07;3.95;;;1.30;;
21743;SDS011;11034;48.556;9.342;2023-09-19T12:02:48;3.00;;;1.20;;
21743;SDS011;11034;48.556;9.342;2023-09-19T12:05:28;4.18;;;1.20;;
21743;SDS011;11034;48.556;9.342;2023-09-19T12:07:58;1.58;;;1.10;;
21743;SDS011;11034;48.556;9.342;2023-09-19T12:10:27;1.75;;;1.05;;
21743;SDS011;11034;48.556;9.342;2023-09-19T12:12:58;2.65;;;1.10;;
21743;SDS011;11034;48.556;9.342;2023-09-19T12:15:32;3.22;;;1.58;;
21743;SDS011;11034;48.556;9.342;2023-09-19T12:18:13;4.18;;;1.50;;
21743;SDS011;11034;48.556;9.342;2023-09-19T12:20:59;2.63;;;1.17;;
21743;SDS011;11034;48.556;9.342;2023-09-19T12:23:44;2.47;;;1.42;;
21743;SDS011;11034;48.556;9.342;2023-09-19T12:26:29;3.10;;;1.63;;
21743;SDS011;11034;48.556;9.342;2023-09-19T12:29:03;3.90;;;1.70;;
21743;SDS011;11034;48.556;9.342;2023-09-19T12:31:49;3.97;;;1.20;;
21743;SDS011;11034;48.556;9.342;2023-09-19T12:34:30;2.70;;;1.20;;
21743;SDS011;11034;48.556;9.342;2023-09-19T12:37:06;2.00;;;1.20;;
21743;SDS011;11034;48.556;9.342;2023-09-19T12:39:41;1.40;;;0.90;;
21743;SDS011;11034;48.556;9.342;2023-09-19T12:42:15;1.70;;;1.00;;
21743;SDS011;11034;48.556;9.342;2023-09-19T12:44:55;2.30;;;1.10;;
21743;SDS011;11034;48.556;9.342;2023-09-19T12:47:28;1.30;;;1.08;;
21743;SDS011;11034;48.556;9.342;2023-09-19T12:50:11;1.98;;;1.10;;
21743;SDS011;11034;48.556;9.342;2023-09-19T12:52:44;1.88;;;1.00;;
21743;SDS011;11034;48.556;9.342;2023-09-19T12:55:23;1.52;;;1.10;;
21743;SDS011;11034;48.556;9.342;2023-09-19T13:00:53;1.50;;;1.15;;
21743;SDS011;11034;48.556;9.342;2023-09-19T13:03:27;2.50;;;1.45;;
21743;SDS011;11034;48.556;9.342;2023-09-19T13:06:02;1.63;;;0.98;;
21743;SDS011;11034;48.556;9.342;2023-09-19T13:08:32;4.90;;;1.35;;
21743;SDS011;11034;48.556;9.342;2023-09-19T13:11:16;2.03;;;1.10;;
21743;SDS011;11034;48.556;9.342;2023-09-19T13:13:49;1.65;;;1.10;;
21743;SDS011;11034;48.556;9.342;2023-09-19T13:16:52;1.77;;;1.00;;
21743;SDS011;11034;48.556;9.342;2023-09-19T13:19:35;1.75;;;1.23;;
21743;SDS011;11034;48.556;9.342;2023-09-19T13:25:18;4.68;;;1.10;;
21743;SDS011;11034;48.556;9.342;2023-09-19T13:27:49;3.40;;;1.30;;
21743;SDS011;11034;48.556;9.342;2023-09-19T13:30:33;1.75;;;0.95;;
21743;SDS011;11034;48.556;9.342;2023-09-19T13:34:17;3.10;;;1.40;;
21743;SDS011;11034;48.556;9.342;2023-09-19T13:36:34;1.65;;;1.20;;
21743;SDS011;11034;48.556;9.342;2023-09-19T13:39:24;2.30;;;1.30;;
21743;SDS011;11034;48.556;9.342;2023-09-19T13:42:01;1.60;;;1.10;;
21743;SDS011;11034;48.556;9.342;2023-09-19T13:44:32;3.15;;;1.30;;
21743;SDS011;11034;48.556;9.342;2023-09-19T13:47:06;3.20;;;1.27;;
21743;SDS011;11034;48.556;9.342;2023-09-19T13:49:43;2.95;;;1.20;;
21743;SDS011;11034;48.556;9.342;2023-09-19T13:52:33;3.20;;;1.20;;
21743;SDS011;11034;48.556;9.342;2023-09-19T13:55:06;2.53;;;0.93;;
21743;SDS011;11034;48.556;9.342;2023-09-19T13:57:37;2.85;;;1.30;;
21743;SDS011;11034;48.556;9.342;2023-09-19T14:00:14;2.30;;;1.20;;
21743;SDS011;11034;48.556;9.342;2023-09-19T14:02:44;2.10;;;1.10;;
21743;SDS011;11034;48.556;9.342;2023-09-19T14:05:12;2.25;;;1.10;;
21743;SDS011;11034;48.556;9.342;2023-09-19T14:07:43;3.20;;;1.27;;
21743;SDS011;11034;48.556;9.342;2023-09-19T14:10:12;2.10;;;1.30;;
21743;SDS011;11034;48.556;9.342;2023-09-19T14:12:57;3.75;;;1.35;;
21743;SDS011;11034;48.556;9.342;2023-09-19T14:18:50;2.45;;;1.33;;
21743;SDS011;11034;48.556;9.342;2023-09-19T14:21:18;2.53;;;1.40;;
21743;SDS011;11034;48.556;9.342;2023-09-19T14:23:47;2.10;;;1.40;;
21743;SDS011;11034;48.556;9.342;2023-09-19T14:26:15;3.53;;;1.40;;
21743;SDS011;11034;48.556;9.342;2023-09-19T14:28:45;1.80;;;1.10;;
21743;SDS011;11034;48.556;9.342;2023-09-19T14:31:13;4.03;;;1.40;;
21743;SDS011;11034;48.556;9.342;2023-09-19T14:33:41;2.72;;;1.55;;
21743;SDS011;11034;48.556;9.342;2023-09-19T14:36:16;2.42;;;1.30;;
21743;SDS011;11034;48.556;9.342;2023-09-19T14:38:45;2.58;;;1.33;;
21743;SDS011;11034;48.556;9.342;2023-09-19T14:41:13;3.58;;;1.30;;
21743;SDS011;11034;48.556;9.342;2023-09-19T14:43:42;4.05;;;1.33;;
21743;SDS011;11034;48.556;9.342;2023-09-19T14:46:10;1.30;;;1.20;;
21743;SDS011;11034;48.556;9.342;2023-09-19T14:48:42;2.42;;;1.35;;
21743;SDS011;11034;48.556;9.342;2023-09-19T14:51:17;1.85;;;1.35;;
21743;SDS011;11034;48.556;9.342;2023-09-19T14:53:50;2.38;;;1.20;;
21743;SDS011;11034;48.556;9.342;2023-09-19T14:56:19;3.50;;;1.20;;
21743;SDS011;11034;48.556;9.342;2023-09-19T14:58:50;4.30;;;1.30;;
21743;SDS011;11034;48.556;9.342;2023-09-19T15:01:29;2.83;;;1.27;;
21743;SDS011;11034;48.556;9.342;2023-09-19T15:03:59;2.83;;;1.30;;
21743;SDS011;11034;48.556;9.342;2023-09-19T15:06:29;4.75;;;1.30;;
21743;SDS011;11034;48.556;9.342;2023-09-19T15:08:58;3.90;;;1.23;;
21743;SDS011;11034;48.556;9.342;2023-09-19T15:11:26;2.75;;;1.20;;
21743;SDS011;11034;48.556;9.342;2023-09-19T15:13:55;2.13;;;1.30;;
21743;SDS011;11034;48.556;9.342;2023-09-19T15:16:30;3.20;;;1.33;;
21743;SDS011;11034;48.556;9.342;2023-09-19T15:19:42;1.52;;;1.10;;
21743;SDS011;11034;48.556;9.342;2023-09-19T15:22:12;2.13;;;1.20;;
21743;SDS011;11034;48.556;9.342;2023-09-19T15:24:43;2.35;;;1.50;;
21743;SDS011;11034;48.556;9.342;2023-09-19T15:27:14;3.03;;;1.30;;
21743;SDS011;11034;48.556;9.342;2023-09-19T15:29:59;3.28;;;1.58;;
21743;SDS011;11034;48.556;9.342;2023-09-19T15:32:45;2.25;;;1.30;;
21743;SDS011;11034;48.556;9.342;2023-09-19T15:35:42;2.47;;;1.20;;
21743;SDS011;11034;48.556;9.342;2023-09-19T15:38:16;1.70;;;1.10;;
21743;SDS011;11034;48.556;9.342;2023-09-19T15:40:50;3.15;;;1.67;;
21743;SDS011;11034;48.556;9.342;2023-09-19T15:43:19;1.60;;;1.20;;
21743;SDS011;11034;48.556;9.342;2023-09-19T15:45:48;3.65;;;1.20;;
21743;SDS011;11034;48.556;9.342;2023-09-19T15:48:17;3.10;;;1.25;;
21743;SDS011;11034;48.556;9.342;2023-09-19T15:50:47;5.50;;;1.27;;
21743;SDS011;11034;48.556;9.342;2023-09-19T15:53:17;2.88;;;1.15;;
21743;SDS011;11034;48.556;9.342;2023-09-19T15:55:51;1.92;;;1.30;;
21743;SDS011;11034;48.556;9.342;2023-09-19T15:58:34;2.08;;;1.45;;
21743;SDS011;11034;48.556;9.342;2023-09-19T16:01:09;2.63;;;1.30;;
21743;SDS011;11034;48.556;9.342;2023-09-19T16:03:52;1.63;;;1.20;;
21743;SDS011;11034;48.556;9.342;2023-09-19T16:06:38;1.73;;;1.30;;
21743;SDS011;11034;48.556;9.342;2023-09-19T16:09:35;2.97;;;1.50;;
21743;SDS011;11034;48.556;9.342;2023-09-19T16:47:11;2.85;;;1.83;;
21743;SDS011;11034;48.556;9.342;2023-09-19T16:50:14;3.50;;;1.45;;
21743;SDS011;11034;48.556;9.342;2023-09-19T16:52:47;2.38;;;1.30;;
21743;SDS011;11034;48.556;9.342;2023-09-19T16:55:23;3.97;;;1.70;;
21743;SDS011;11034;48.556;9.342;2023-09-19T16:58:15;2.28;;;1.42;;
21743;SDS011;11034;48.556;9.342;2023-09-19T17:00:49;2.08;;;1.48;;
21743;SDS011;11034;48.556;9.342;2023-09-19T17:03:19;3.85;;;1.60;;